sensor_id;sensor_type;location;lat;lon;timestamp;pressure;altitude;pressure_sealevel;temperature;humidity
73558;BME280;61829;53.286;10.434;2022-09-02T00:01:24;101982.56;;;13.22;69.99
73558;BME280;61829;53.286;10.434;2022-09-02T00:03:54;101982.06;;;13.18;70.42
73558;BME280;61829;53.286;10.434;2022-09-02T00:06:21;101979.88;;;13.14;69.99
73558;BME280;61829;53.286;10.434;2022-09-02T00:08:47;101981.91;;;13.12;70.03
73558;BME280;61829;53.286;10.434;2022-09-02T00:11:16;101978.53;;;13.10;69.90
73558;BME280;61829;53.286;10.434;2022-09-02T00:13:43;101986.84;;;13.08;70.85
73558;BME280;61829;53.286;10.434;2022-09-02T00:16:09;101976.16;;;13.07;71.24
73558;BME280;61829;53.286;10.434;2022-09-02T00:18:36;101983.25;;;13.08;71.36
73558;BME280;61829;53.286;10.434;2022-09-02T00:21:02;101971.94;;;13.04;72.02
73558;BME280;61829;53.286;10.434;2022-09-02T00:23:30;101976.69;;;13.02;72.54
73558;BME280;61829;53.286;10.434;2022-09-02T00:25:56;101973.81;;;12.95;73.15
73558;BME280;61829;53.286;10.434;2022-09-02T00:28:23;101965.22;;;12.92;73.04
73558;BME280;61829;53.286;10.434;2022-09-02T00:30:49;101969.94;;;12.98;73.11
73558;BME280;61829;53.286;10.434;2022-09-02T00:33:15;101965.72;;;12.95;72.76
73558;BME280;61829;53.286;10.434;2022-09-02T00:35:41;101968.06;;;12.98;73.48
73558;BME280;61829;53.286;10.434;2022-09-02T00:38:08;101968.28;;;12.89;73.39
73558;BME280;61829;53.286;10.434;2022-09-02T00:40:36;101965.44;;;12.74;72.89
73558;BME280;61829;53.286;10.434;2022-09-02T00:43:07;101964.91;;;12.62;73.22
73558;BME280;61829;53.286;10.434;2022-09-02T00:45:34;101972.88;;;12.55;73.99
73558;BME280;61829;53.286;10.434;2022-09-02T00:48:00;101965.44;;;12.49;73.20
73558;BME280;61829;53.286;10.434;2022-09-02T00:50:30;101963.25;;;12.45;72.99
73558;BME280;61829;53.286;10.434;2022-09-02T00:53:08;101965.28;;;12.43;72.51
73558;BME280;61829;53.286;10.434;2022-09-02T00:55:42;101969.66;;;12.44;73.52
73558;BME280;61829;53.286;10.434;2022-09-02T00:58:17;101966.78;;;12.45;73.10
73558;BME280;61829;53.286;10.434;2022-09-02T01:00:47;101971.34;;;12.45;73.77
73558;BME280;61829;53.286;10.434;2022-09-02T01:03:17;101965.28;;;12.43;73.54
73558;BME280;61829;53.286;10.434;2022-09-02T01:05:45;101966.28;;;12.42;73.71
73558;BME280;61829;53.286;10.434;2022-09-02T01:08:15;101963.41;;;12.35;75.37
73558;BME280;61829;53.286;10.434;2022-09-02T01:10:44;101964.09;;;12.21;75.92
73558;BME280;61829;53.286;10.434;2022-09-02T01:13:14;101964.06;;;12.12;76.74
73558;BME280;61829;53.286;10.434;2022-09-02T01:15:46;101963.38;;;12.02;77.78
73558;BME280;61829;53.286;10.434;2022-09-02T01:18:17;101959.31;;;11.90;78.18
73558;BME280;61829;53.286;10.434;2022-09-02T01:20:44;101954.53;;;11.84;77.90
73558;BME280;61829;53.286;10.434;2022-09-02T01:23:10;101961.78;;;11.75;78.87
73558;BME280;61829;53.286;10.434;2022-09-02T01:25:37;101957.88;;;11.69;78.96
73558;BME280;61829;53.286;10.434;2022-09-02T01:28:10;101958.88;;;11.68;78.21
73558;BME280;61829;53.286;10.434;2022-09-02T01:30:40;101953.84;;;11.74;77.25
73558;BME280;61829;53.286;10.434;2022-09-02T01:33:07;101954.34;;;11.77;77.68
73558;BME280;61829;53.286;10.434;2022-09-02T01:35:34;101954.88;;;11.81;77.26
73558;BME280;61829;53.286;10.434;2022-09-02T01:38:00;101958.94;;;11.85;77.22
73558;BME280;61829;53.286;10.434;2022-09-02T01:40:29;101954.94;;;11.89;77.01
73558;BME280;61829;53.286;10.434;2022-09-02T01:43:01;101956.59;;;11.90;76.78
73558;BME280;61829;53.286;10.434;2022-09-02T01:45:28;101952.22;;;11.89;76.90
73558;BME280;61829;53.286;10.434;2022-09-02T01:47:54;101953.91;;;11.90;76.79
73558;BME280;61829;53.286;10.434;2022-09-02T01:50:20;101952.22;;;11.89;77.38
73558;BME280;61829;53.286;10.434;2022-09-02T01:52:46;101953.06;;;11.89;77.16
73558;BME280;61829;53.286;10.434;2022-09-02T01:55:12;101945.59;;;11.83;78.55
73558;BME280;61829;53.286;10.434;2022-09-02T01:57:39;101948.59;;;11.80;78.11
73558;BME280;61829;53.286;10.434;2022-09-02T02:00:06;101947.25;;;11.76;78.37
73558;BME280;61829;53.286;10.434;2022-09-02T02:02:32;101942.19;;;11.73;77.72
73558;BME280;61829;53.286;10.434;2022-09-02T02:04:58;101936.78;;;11.73;77.63
73558;BME280;61829;53.286;10.434;2022-09-02T02:07:24;101947.25;;;11.76;77.93
73558;BME280;61829;53.286;10.434;2022-09-02T02:09:51;101938.47;;;11.74;77.78
73558;BME280;61829;53.286;10.434;2022-09-02T02:12:18;101934.44;;;11.78;77.87
73558;BME280;61829;53.286;10.434;2022-09-02T02:14:44;101937.31;;;11.77;77.59
73558;BME280;61829;53.286;10.434;2022-09-02T02:17:10;101941.03;;;11.76;77.60
73558;BME280;61829;53.286;10.434;2022-09-02T02:19:36;101941.16;;;11.74;77.69
73558;BME280;61829;53.286;10.434;2022-09-02T02:22:02;101935.59;;;11.67;77.31
73558;BME280;61829;53.286;10.434;2022-09-02T02:24:28;101931.69;;;11.62;77.54
73558;BME280;61829;53.286;10.434;2022-09-02T02:26:55;101931.53;;;11.55;78.03
73558;BME280;61829;53.286;10.434;2022-09-02T02:29:21;101923.91;;;11.51;77.91
73558;BME280;61829;53.286;10.434;2022-09-02T02:31:48;101925.91;;;11.49;78.34
73558;BME280;61829;53.286;10.434;2022-09-02T02:34:14;101936.88;;;11.47;78.36
73558;BME280;61829;53.286;10.434;2022-09-02T02:36:41;101935.19;;;11.46;79.59
73558;BME280;61829;53.286;10.434;2022-09-02T02:39:09;101925.75;;;11.42;79.68
73558;BME280;61829;53.286;10.434;2022-09-02T02:41:36;101928.59;;;11.40;80.29
73558;BME280;61829;53.286;10.434;2022-09-02T02:44:03;101928.06;;;11.37;79.80
73558;BME280;61829;53.286;10.434;2022-09-02T02:46:29;101930.78;;;11.37;80.50
73558;BME280;61829;53.286;10.434;2022-09-02T02:48:58;101924.16;;;11.31;80.13
73558;BME280;61829;53.286;10.434;2022-09-02T02:51:24;101923.47;;;11.29;80.61
73558;BME280;61829;53.286;10.434;2022-09-02T02:53:50;101921.81;;;11.28;79.70
73558;BME280;61829;53.286;10.434;2022-09-02T02:56:16;101924.34;;;11.30;80.47
73558;BME280;61829;53.286;10.434;2022-09-02T02:58:43;101924.69;;;11.27;81.25
73558;BME280;61829;53.286;10.434;2022-09-02T03:01:09;101919.91;;;11.20;81.65
73558;BME280;61829;53.286;10.434;2022-09-02T03:03:35;101921.25;;;11.16;82.44
73558;BME280;61829;53.286;10.434;2022-09-02T03:09:57;101915.81;;;11.08;81.53
73558;BME280;61829;53.286;10.434;2022-09-02T03:12:23;101915.50;;;11.11;82.36
73558;BME280;61829;53.286;10.434;2022-09-02T03:14:50;101915.50;;;11.11;82.24
73558;BME280;61829;53.286;10.434;2022-09-02T03:17:17;101908.03;;;11.05;82.71
73558;BME280;61829;53.286;10.434;2022-09-02T03:19:43;101905.34;;;11.05;82.67
73558;BME280;61829;53.286;10.434;2022-09-02T03:22:09;101907.22;;;11.05;82.83
73558;BME280;61829;53.286;10.434;2022-09-02T03:24:39;101910.06;;;11.03;82.60
73558;BME280;61829;53.286;10.434;2022-09-02T03:27:05;101905.69;;;11.02;82.65
73558;BME280;61829;53.286;10.434;2022-09-02T03:29:30;101909.34;;;11.01;83.04
73558;BME280;61829;53.286;10.434;2022-09-02T03:31:56;101909.69;;;10.98;82.43
73558;BME280;61829;53.286;10.434;2022-09-02T03:34:23;101909.53;;;10.99;83.33
73558;BME280;61829;53.286;10.434;2022-09-02T03:36:49;101908.00;;;10.97;82.99
73558;BME280;61829;53.286;10.434;2022-09-02T03:39:15;101906.47;;;10.94;83.36
73558;BME280;61829;53.286;10.434;2022-09-02T03:41:41;101910.84;;;10.95;83.02
73558;BME280;61829;53.286;10.434;2022-09-02T03:44:08;101911.34;;;10.91;83.54
73558;BME280;61829;53.286;10.434;2022-09-02T03:46:34;101903.59;;;10.88;83.95
73558;BME280;61829;53.286;10.434;2022-09-02T03:49:02;101901.34;;;10.83;84.03
73558;BME280;61829;53.286;10.434;2022-09-02T03:51:28;101895.59;;;10.78;83.00
73558;BME280;61829;53.286;10.434;2022-09-02T03:53:54;101896.97;;;10.82;83.43
73558;BME280;61829;53.286;10.434;2022-09-02T03:56:21;101895.25;;;10.81;83.58
73558;BME280;61829;53.286;10.434;2022-09-02T03:58:48;101895.13;;;10.83;84.52
73558;BME280;61829;53.286;10.434;2022-09-02T04:01:21;101897.81;;;10.83;83.05
73558;BME280;61829;53.286;10.434;2022-09-02T04:03:48;101894.28;;;10.82;83.47
73558;BME280;61829;53.286;10.434;2022-09-02T04:06:16;101895.97;;;10.83;83.30
73558;BME280;61829;53.286;10.434;2022-09-02T04:08:43;101891.59;;;10.82;84.24
73558;BME280;61829;53.286;10.434;2022-09-02T04:11:13;101889.22;;;10.79;83.78
73558;BME280;61829;53.286;10.434;2022-09-02T04:13:40;101893.91;;;10.77;83.52
73558;BME280;61829;53.286;10.434;2022-09-02T04:16:09;101894.22;;;10.74;83.95
73558;BME280;61829;53.286;10.434;2022-09-02T04:18:36;101894.19;;;10.66;83.17
73558;BME280;61829;53.286;10.434;2022-09-02T04:21:03;101902.41;;;10.64;82.80
73558;BME280;61829;53.286;10.434;2022-09-02T04:23:30;101893.34;;;10.65;83.13
73558;BME280;61829;53.286;10.434;2022-09-02T04:25:57;101887.63;;;10.68;83.49
73558;BME280;61829;53.286;10.434;2022-09-02T04:28:23;101889.09;;;10.63;83.28
73558;BME280;61829;53.286;10.434;2022-09-02T04:30:50;101890.59;;;10.57;83.94
73558;BME280;61829;53.286;10.434;2022-09-02T04:33:16;101890.72;;;10.55;84.29
73558;BME280;61829;53.286;10.434;2022-09-02T04:35:44;101891.06;;;10.52;83.94
73558;BME280;61829;53.286;10.434;2022-09-02T04:38:11;101886.69;;;10.51;83.90
73558;BME280;61829;53.286;10.434;2022-09-02T04:40:40;101894.06;;;10.49;83.91
73558;BME280;61829;53.286;10.434;2022-09-02T04:43:07;101898.09;;;10.45;83.94
73558;BME280;61829;53.286;10.434;2022-09-02T04:45:33;101901.13;;;10.42;84.47
73558;BME280;61829;53.286;10.434;2022-09-02T04:47:59;101891.31;;;10.41;84.26
73558;BME280;61829;53.286;10.434;2022-09-02T04:50:25;101895.16;;;10.39;84.61
73558;BME280;61829;53.286;10.434;2022-09-02T04:52:53;101892.47;;;10.39;83.50
73558;BME280;61829;53.286;10.434;2022-09-02T04:55:20;101906.50;;;10.42;84.61
73558;BME280;61829;53.286;10.434;2022-09-02T04:57:46;101905.50;;;10.43;84.50
73558;BME280;61829;53.286;10.434;2022-09-02T05:00:13;101905.50;;;10.43;85.07
73558;BME280;61829;53.286;10.434;2022-09-02T05:02:39;101910.88;;;10.43;85.00
73558;BME280;61829;53.286;10.434;2022-09-02T05:05:06;101908.34;;;10.42;85.09
73558;BME280;61829;53.286;10.434;2022-09-02T05:07:35;101909.91;;;10.52;84.82
73558;BME280;61829;53.286;10.434;2022-09-02T05:10:02;101906.38;;;10.78;83.54
73558;BME280;61829;53.286;10.434;2022-09-02T05:12:30;101909.06;;;11.04;82.57
73558;BME280;61829;53.286;10.434;2022-09-02T05:14:56;101905.16;;;11.41;80.98
73558;BME280;61829;53.286;10.434;2022-09-02T05:17:25;101902.88;;;11.71;79.43
73558;BME280;61829;53.286;10.434;2022-09-02T05:19:52;101912.56;;;12.22;77.92
73558;BME280;61829;53.286;10.434;2022-09-02T05:22:18;101913.22;;;12.57;75.94
73558;BME280;61829;53.286;10.434;2022-09-02T05:24:45;101918.06;;;12.86;75.05
73558;BME280;61829;53.286;10.434;2022-09-02T05:27:12;101913.41;;;13.11;73.93
73558;BME280;61829;53.286;10.434;2022-09-02T05:29:41;101918.53;;;13.45;72.17
73558;BME280;61829;53.286;10.434;2022-09-02T05:32:07;101914.25;;;13.82;70.86
73558;BME280;61829;53.286;10.434;2022-09-02T05:34:34;101918.34;;;14.24;68.89
73558;BME280;61829;53.286;10.434;2022-09-02T05:37:01;101912.53;;;14.50;68.06
73558;BME280;61829;53.286;10.434;2022-09-02T05:39:28;101921.94;;;14.77;67.15
73558;BME280;61829;53.286;10.434;2022-09-02T05:41:54;101914.28;;;15.11;65.77
73558;BME280;61829;53.286;10.434;2022-09-02T05:44:20;101919.19;;;15.37;64.56
73558;BME280;61829;53.286;10.434;2022-09-02T05:46:46;101911.47;;;15.70;63.83
73558;BME280;61829;53.286;10.434;2022-09-02T05:49:12;101911.63;;;15.83;62.76
73558;BME280;61829;53.286;10.434;2022-09-02T05:54:34;101910.78;;;16.04;61.83
73558;BME280;61829;53.286;10.434;2022-09-02T05:57:04;101907.13;;;16.40;61.16
73558;BME280;61829;53.286;10.434;2022-09-02T05:59:31;101910.56;;;16.77;59.58
73558;BME280;61829;53.286;10.434;2022-09-02T06:02:01;101908.72;;;17.19;58.38
73558;BME280;61829;53.286;10.434;2022-09-02T06:04:27;101910.72;;;17.51;57.08
73558;BME280;61829;53.286;10.434;2022-09-02T06:06:53;101907.84;;;17.66;56.67
73558;BME280;61829;53.286;10.434;2022-09-02T06:09:21;101901.34;;;17.74;56.01
73558;BME280;61829;53.286;10.434;2022-09-02T06:11:49;101896.63;;;17.89;56.13
73558;BME280;61829;53.286;10.434;2022-09-02T06:14:18;101895.16;;;18.07;55.27
73558;BME280;61829;53.286;10.434;2022-09-02T06:16:45;101894.53;;;18.18;55.10
73558;BME280;61829;53.286;10.434;2022-09-02T06:19:12;101891.78;;;18.31;54.19
73558;BME280;61829;53.286;10.434;2022-09-02T06:21:39;101899.56;;;18.48;54.00
73558;BME280;61829;53.286;10.434;2022-09-02T06:24:08;101900.63;;;18.40;54.17
73558;BME280;61829;53.286;10.434;2022-09-02T06:26:36;101897.47;;;18.43;53.73
73558;BME280;61829;53.286;10.434;2022-09-02T06:29:04;101901.69;;;18.46;53.79
73558;BME280;61829;53.286;10.434;2022-09-02T06:31:30;101901.25;;;18.49;54.24
73558;BME280;61829;53.286;10.434;2022-09-02T06:33:57;101904.81;;;18.43;54.08
73558;BME280;61829;53.286;10.434;2022-09-02T06:36:24;101906.47;;;18.57;53.81
73558;BME280;61829;53.286;10.434;2022-09-02T06:38:52;101905.63;;;18.90;53.26
73558;BME280;61829;53.286;10.434;2022-09-02T06:41:27;101903.13;;;18.81;53.00
73558;BME280;61829;53.286;10.434;2022-09-02T06:43:58;101908.16;;;18.84;52.87
73558;BME280;61829;53.286;10.434;2022-09-02T06:46:31;101903.94;;;18.89;53.00
73558;BME280;61829;53.286;10.434;2022-09-02T06:48:57;101898.50;;;18.89;52.90
73558;BME280;61829;53.286;10.434;2022-09-02T06:51:38;101896.97;;;19.06;52.99
73558;BME280;61829;53.286;10.434;2022-09-02T06:54:08;101898.63;;;19.07;52.09
73558;BME280;61829;53.286;10.434;2022-09-02T06:56:34;101899.97;;;18.91;52.96
73558;BME280;61829;53.286;10.434;2022-09-02T06:59:02;101892.81;;;18.90;52.72
73558;BME280;61829;53.286;10.434;2022-09-02T07:01:31;101897.16;;;19.11;52.88
73558;BME280;61829;53.286;10.434;2022-09-02T07:03:58;101897.88;;;19.45;52.34
73558;BME280;61829;53.286;10.434;2022-09-02T07:06:47;101898.69;;;19.90;51.68
73558;BME280;61829;53.286;10.434;2022-09-02T07:09:17;101899.25;;;19.99;49.82
73558;BME280;61829;53.286;10.434;2022-09-02T07:11:45;101907.34;;;20.12;50.29
73558;BME280;61829;53.286;10.434;2022-09-02T07:14:18;101903.47;;;19.95;50.54
73558;BME280;61829;53.286;10.434;2022-09-02T07:16:49;101901.50;;;20.09;50.73
73558;BME280;61829;53.286;10.434;2022-09-02T07:19:18;101897.47;;;20.11;50.23
73558;BME280;61829;53.286;10.434;2022-09-02T07:21:47;101896.59;;;20.42;49.20
73558;BME280;61829;53.286;10.434;2022-09-02T07:24:14;101892.47;;;20.58;48.64
73558;BME280;61829;53.286;10.434;2022-09-02T07:26:42;101903.69;;;20.25;49.53
73558;BME280;61829;53.286;10.434;2022-09-02T07:29:09;101893.84;;;20.42;49.39
73558;BME280;61829;53.286;10.434;2022-09-02T07:31:38;101899.16;;;20.62;48.67
73558;BME280;61829;53.286;10.434;2022-09-02T07:34:05;101901.16;;;20.55;49.15
73558;BME280;61829;53.286;10.434;2022-09-02T07:36:33;101893.78;;;20.74;48.25
73558;BME280;61829;53.286;10.434;2022-09-02T07:39:07;101890.06;;;20.87;47.17
73558;BME280;61829;53.286;10.434;2022-09-02T07:41:35;101888.72;;;21.15;47.07
73558;BME280;61829;53.286;10.434;2022-09-02T07:44:02;101890.22;;;21.29;46.39
73558;BME280;61829;53.286;10.434;2022-09-02T07:46:28;101892.75;;;21.12;46.79
73558;BME280;61829;53.286;10.434;2022-09-02T07:49:01;101890.38;;;21.16;46.08
73558;BME280;61829;53.286;10.434;2022-09-02T07:51:30;101886.09;;;21.38;46.54
73558;BME280;61829;53.286;10.434;2022-09-02T07:54:00;101884.06;;;21.64;45.59
73558;BME280;61829;53.286;10.434;2022-09-02T07:56:26;101879.63;;;21.93;45.03
73558;BME280;61829;53.286;10.434;2022-09-02T07:58:52;101883.19;;;21.93;44.74
73558;BME280;61829;53.286;10.434;2022-09-02T08:01:18;101883.81;;;22.07;44.44
73558;BME280;61829;53.286;10.434;2022-09-02T08:03:45;101883.59;;;22.09;44.12
73558;BME280;61829;53.286;10.434;2022-09-02T08:06:12;101880.84;;;22.09;44.05
73558;BME280;61829;53.286;10.434;2022-09-02T08:08:40;101887.66;;;22.06;44.23
73558;BME280;61829;53.286;10.434;2022-09-02T08:11:07;101886.00;;;22.05;44.41
73558;BME280;61829;53.286;10.434;2022-09-02T08:13:35;101887.88;;;22.05;44.45
73558;BME280;61829;53.286;10.434;2022-09-02T08:16:02;101888.44;;;21.83;44.73
73558;BME280;61829;53.286;10.434;2022-09-02T08:18:28;101889.09;;;21.67;45.02
73558;BME280;61829;53.286;10.434;2022-09-02T08:20:54;101881.16;;;21.77;45.55
73558;BME280;61829;53.286;10.434;2022-09-02T08:23:20;101873.69;;;22.08;43.83
73558;BME280;61829;53.286;10.434;2022-09-02T08:25:46;101882.81;;;22.20;43.51
73558;BME280;61829;53.286;10.434;2022-09-02T08:28:12;101875.28;;;22.27;42.99
73558;BME280;61829;53.286;10.434;2022-09-02T08:30:39;101870.88;;;22.26;44.01
73558;BME280;61829;53.286;10.434;2022-09-02T08:33:05;101870.59;;;22.16;43.21
73558;BME280;61829;53.286;10.434;2022-09-02T08:35:31;101866.00;;;22.28;43.28
73558;BME280;61829;53.286;10.434;2022-09-02T08:37:58;101863.84;;;22.42;43.68
73558;BME280;61829;53.286;10.434;2022-09-02T08:40:34;101866.44;;;22.72;43.21
73558;BME280;61829;53.286;10.434;2022-09-02T08:43:02;101867.03;;;22.86;41.43
73558;BME280;61829;53.286;10.434;2022-09-02T08:45:31;101863.09;;;22.58;41.76
73558;BME280;61829;53.286;10.434;2022-09-02T08:50:26;101861.78;;;22.61;41.40
73558;BME280;61829;53.286;10.434;2022-09-02T08:55:23;101859.38;;;22.88;41.20
73558;BME280;61829;53.286;10.434;2022-09-02T08:57:52;101875.41;;;22.79;41.42
73558;BME280;61829;53.286;10.434;2022-09-02T09:00:22;101863.09;;;22.58;41.79
73558;BME280;61829;53.286;10.434;2022-09-02T09:14:20;101847.56;;;22.99;41.50
73558;BME280;61829;53.286;10.434;2022-09-02T09:16:58;101847.03;;;23.14;41.16
73558;BME280;61829;53.286;10.434;2022-09-02T09:21:57;101850.75;;;23.08;39.77
73558;BME280;61829;53.286;10.434;2022-09-02T09:24:35;101845.56;;;23.23;39.57
73558;BME280;61829;53.286;10.434;2022-09-02T09:27:06;101845.59;;;23.12;39.94
73558;BME280;61829;53.286;10.434;2022-09-02T09:29:34;101834.66;;;23.28;42.00
73558;BME280;61829;53.286;10.434;2022-09-02T09:32:01;101843.28;;;23.49;39.21
73558;BME280;61829;53.286;10.434;2022-09-02T09:38:01;101841.84;;;23.58;38.95
73558;BME280;61829;53.286;10.434;2022-09-02T09:45:36;101838.63;;;23.49;38.78
73558;BME280;61829;53.286;10.434;2022-09-02T09:50:42;101823.47;;;23.75;39.50
73558;BME280;61829;53.286;10.434;2022-09-02T09:53:34;101826.53;;;24.13;38.49
73558;BME280;61829;53.286;10.434;2022-09-02T09:56:03;101821.22;;;23.72;38.08
73558;BME280;61829;53.286;10.434;2022-09-02T10:03:42;101810.56;;;23.64;39.43
73558;BME280;61829;53.286;10.434;2022-09-02T10:09:00;101800.41;;;24.15;37.79
73558;BME280;61829;53.286;10.434;2022-09-02T10:14:01;101800.41;;;24.49;37.07
73558;BME280;61829;53.286;10.434;2022-09-02T10:30:18;101788.41;;;24.60;35.13
73558;BME280;61829;53.286;10.434;2022-09-02T10:46:43;101770.72;;;24.78;34.94
73558;BME280;61829;53.286;10.434;2022-09-02T10:58:03;101764.81;;;24.31;36.16
73558;BME280;61829;53.286;10.434;2022-09-02T11:00:32;101748.72;;;24.01;36.08
73558;BME280;61829;53.286;10.434;2022-09-02T11:03:11;101754.88;;;23.91;35.97
73558;BME280;61829;53.286;10.434;2022-09-02T11:05:52;101749.00;;;23.53;36.56
73558;BME280;61829;53.286;10.434;2022-09-02T11:22:48;101735.47;;;24.58;34.47
73558;BME280;61829;53.286;10.434;2022-09-02T11:25:31;101730.91;;;24.69;33.82
73558;BME280;61829;53.286;10.434;2022-09-02T11:28:20;101728.00;;;25.03;34.22
73558;BME280;61829;53.286;10.434;2022-09-02T11:33:27;101730.91;;;25.45;33.18
73558;BME280;61829;53.286;10.434;2022-09-02T11:35:57;101724.63;;;25.23;33.26
73558;BME280;61829;53.286;10.434;2022-09-02T11:38:46;101718.63;;;25.31;33.45
73558;BME280;61829;53.286;10.434;2022-09-02T11:52:23;101721.09;;;25.60;32.65
73558;BME280;61829;53.286;10.434;2022-09-02T11:55:19;101725.75;;;25.27;32.46
73558;BME280;61829;53.286;10.434;2022-09-02T11:57:56;101715.78;;;24.99;33.14
73558;BME280;61829;53.286;10.434;2022-09-02T12:00:30;101727.75;;;24.82;33.63
73558;BME280;61829;53.286;10.434;2022-09-02T12:13:11;101697.94;;;24.79;32.95
73558;BME280;61829;53.286;10.434;2022-09-02T12:21:32;101694.25;;;24.69;33.40
73558;BME280;61829;53.286;10.434;2022-09-02T12:31:48;101676.31;;;24.93;33.75
73558;BME280;61829;53.286;10.434;2022-09-02T12:36:54;101664.00;;;25.33;32.23
73558;BME280;61829;53.286;10.434;2022-09-02T12:44:47;101663.03;;;25.49;32.10
73558;BME280;61829;53.286;10.434;2022-09-02T12:55:52;101664.88;;;25.39;31.54
73558;BME280;61829;53.286;10.434;2022-09-02T12:58:20;101662.22;;;25.17;31.79
73558;BME280;61829;53.286;10.434;2022-09-02T13:00:59;101659.19;;;25.18;31.63
73558;BME280;61829;53.286;10.434;2022-09-02T13:20:46;101651.81;;;24.26;33.08
73558;BME280;61829;53.286;10.434;2022-09-02T13:29:14;101648.22;;;24.03;33.34
73558;BME280;61829;53.286;10.434;2022-09-02T13:32:00;101650.88;;;24.15;33.10
73558;BME280;61829;53.286;10.434;2022-09-02T13:34:30;101643.00;;;24.24;33.60
73558;BME280;61829;53.286;10.434;2022-09-02T13:36:56;101649.63;;;24.28;33.19
73558;BME280;61829;53.286;10.434;2022-09-02T13:39:25;101636.38;;;24.25;32.23
73558;BME280;61829;53.286;10.434;2022-09-02T13:41:52;101634.91;;;24.17;33.09
73558;BME280;61829;53.286;10.434;2022-09-02T13:44:22;101629.22;;;24.24;34.46
73558;BME280;61829;53.286;10.434;2022-09-02T13:47:00;101624.97;;;24.16;32.92
73558;BME280;61829;53.286;10.434;2022-09-02T13:49:38;101614.59;;;24.23;33.83
73558;BME280;61829;53.286;10.434;2022-09-02T13:52:10;101614.03;;;24.21;32.64
73558;BME280;61829;53.286;10.434;2022-09-02T13:54:39;101618.06;;;24.13;32.41
73558;BME280;61829;53.286;10.434;2022-09-02T13:57:10;101616.72;;;23.94;32.69
73558;BME280;61829;53.286;10.434;2022-09-02T13:59:39;101606.56;;;23.78;32.88
73558;BME280;61829;53.286;10.434;2022-09-02T14:02:19;101607.66;;;23.77;33.12
73558;BME280;61829;53.286;10.434;2022-09-02T14:04:49;101605.81;;;23.82;33.29
73558;BME280;61829;53.286;10.434;2022-09-02T14:07:25;101595.13;;;23.69;32.64
73558;BME280;61829;53.286;10.434;2022-09-02T14:09:52;101596.25;;;23.51;33.48
73558;BME280;61829;53.286;10.434;2022-09-02T14:12:19;101592.72;;;23.34;33.68
73558;BME280;61829;53.286;10.434;2022-09-02T14:14:45;101591.06;;;23.33;34.34
73558;BME280;61829;53.286;10.434;2022-09-02T14:17:22;101584.78;;;23.37;34.26
73558;BME280;61829;53.286;10.434;2022-09-02T14:19:48;101584.19;;;23.35;34.05
73558;BME280;61829;53.286;10.434;2022-09-02T14:22:22;101583.38;;;23.35;33.33
73558;BME280;61829;53.286;10.434;2022-09-02T14:24:49;101585.38;;;23.39;33.48
73558;BME280;61829;53.286;10.434;2022-09-02T14:27:18;101577.13;;;23.39;33.40
73558;BME280;61829;53.286;10.434;2022-09-02T14:29:46;101583.28;;;23.29;33.74
73558;BME280;61829;53.286;10.434;2022-09-02T14:32:20;101580.78;;;23.28;34.40
73558;BME280;61829;53.286;10.434;2022-09-02T14:34:48;101577.47;;;23.26;34.34
73558;BME280;61829;53.286;10.434;2022-09-02T14:37:19;101579.06;;;23.22;34.73
73558;BME280;61829;53.286;10.434;2022-09-02T14:42:26;101571.81;;;23.16;33.90
73558;BME280;61829;53.286;10.434;2022-09-02T14:44:52;101583.13;;;23.19;34.86
73558;BME280;61829;53.286;10.434;2022-09-02T14:47:20;101560.97;;;23.09;34.23
73558;BME280;61829;53.286;10.434;2022-09-02T14:49:48;101566.72;;;23.07;34.89
73558;BME280;61829;53.286;10.434;2022-09-02T14:52:18;101566.38;;;23.04;34.60
73558;BME280;61829;53.286;10.434;2022-09-02T14:54:47;101578.16;;;22.99;35.30
73558;BME280;61829;53.286;10.434;2022-09-02T14:57:26;101575.72;;;23.03;35.13
73558;BME280;61829;53.286;10.434;2022-09-02T14:59:54;101575.81;;;23.08;34.74
73558;BME280;61829;53.286;10.434;2022-09-02T15:04:55;101576.81;;;23.02;34.84
73558;BME280;61829;53.286;10.434;2022-09-02T15:07:22;101583.31;;;22.96;34.75
73558;BME280;61829;53.286;10.434;2022-09-02T15:09:50;101573.34;;;22.95;35.04
73558;BME280;61829;53.286;10.434;2022-09-02T15:12:28;101588.81;;;22.96;35.10
73558;BME280;61829;53.286;10.434;2022-09-02T15:14:55;101572.09;;;22.85;35.15
73558;BME280;61829;53.286;10.434;2022-09-02T15:17:22;101571.41;;;22.78;35.83
73558;BME280;61829;53.286;10.434;2022-09-02T15:19:48;101573.25;;;22.73;35.42
73558;BME280;61829;53.286;10.434;2022-09-02T15:22:15;101579.13;;;22.64;34.25
73558;BME280;61829;53.286;10.434;2022-09-02T15:24:42;101566.75;;;22.62;34.65
73558;BME280;61829;53.286;10.434;2022-09-02T15:27:12;101561.09;;;22.69;35.03
73558;BME280;61829;53.286;10.434;2022-09-02T15:29:38;101566.31;;;22.70;35.14
73558;BME280;61829;53.286;10.434;2022-09-02T15:32:05;101578.00;;;22.77;35.29
73558;BME280;61829;53.286;10.434;2022-09-02T15:34:31;101560.94;;;22.75;35.04
73558;BME280;61829;53.286;10.434;2022-09-02T15:37:00;101561.28;;;22.79;34.98
73558;BME280;61829;53.286;10.434;2022-09-02T15:39:26;101563.94;;;22.74;35.85
73558;BME280;61829;53.286;10.434;2022-09-02T15:41:53;101565.25;;;22.71;35.17
73558;BME280;61829;53.286;10.434;2022-09-02T15:44:23;101566.75;;;22.62;34.56
73558;BME280;61829;53.286;10.434;2022-09-02T15:46:54;101560.34;;;22.56;35.09
73558;BME280;61829;53.286;10.434;2022-09-02T15:49:21;101560.13;;;22.46;35.02